Time;durP1;ratioP1;P1;durP2;ratioP2;P2;SDS_P1;SDS_P2;PMS_P1;PMS_P2;Temp;Humidity;BMP_temperature;BMP_pressure;BME280_temperature;BME280_humidity;BME280_pressure;Samples;Min_cycle;Max_cycle;Signal;HPM_P1;HPM_P2
2021/07/14 00:02:08;;;;;;;88.18;69.47;;;20.30;99.90;;;;;;4929935;29;20471;-77
2021/07/14 00:04:37;;;;;;;85.30;69.85;;;20.30;99.90;;;;;;4932750;29;20047;-77
2021/07/14 00:07:05;;;;;;;84.05;68.75;;;20.30;99.90;;;;;;4944789;28;20042;-77
2021/07/14 00:09:32;;;;;;;88.25;70.85;;;20.30;99.90;;;;;;4948380;28;20047;-77
2021/07/14 00:12:02;;;;;;;85.70;71.40;;;20.20;99.90;;;;;;4931984;28;20535;-77
2021/07/14 00:22:34;;;;;;;90.03;73.35;;;20.40;99.90;;;;;;4966596;28;20111;-77
2021/07/14 00:25:04;;;;;;;91.03;70.78;;;20.50;99.90;;;;;;4945536;28;20062;-77
2021/07/14 00:27:30;;;;;;;83.95;72.30;;;20.50;99.90;;;;;;4961911;28;20042;-78
2021/07/14 00:30:00;;;;;;;90.65;73.38;;;20.50;99.90;;;;;;4930513;29;20121;-76
2021/07/14 00:32:27;;;;;;;92.18;73.55;;;20.50;99.90;;;;;;4947047;28;20059;-76
2021/07/14 00:34:55;;;;;;;87.10;70.40;;;20.50;99.90;;;;;;4947127;28;20063;-76
2021/07/14 00:37:22;;;;;;;89.15;72.35;;;20.50;99.90;;;;;;4948818;28;20047;-76
2021/07/14 00:39:55;;;;;;;88.32;73.75;;;20.60;99.90;;;;;;4929667;29;20508;-76
2021/07/14 00:42:26;;;;;;;93.18;73.03;;;20.60;99.90;;;;;;4961834;28;20160;-77
2021/07/14 00:44:56;;;;;;;86.95;71.07;;;20.70;99.90;;;;;;4950528;28;20051;-77
2021/07/14 00:47:31;;;;;;;92.47;73.18;;;20.80;99.90;;;;;;4962785;28;20554;-78
2021/07/14 00:49:59;;;;;;;96.40;75.30;;;20.70;99.90;;;;;;4949119;28;20434;-77
2021/07/14 00:52:26;;;;;;;89.80;72.22;;;20.80;99.90;;;;;;4933487;28;20391;-77
2021/07/14 00:54:55;;;;;;;90.28;70.75;;;20.70;99.90;;;;;;4931227;28;20451;-77
2021/07/14 00:57:25;;;;;;;97.45;77.05;;;20.60;99.90;;;;;;4962444;28;20049;-77
2021/07/14 00:59:52;;;;;;;95.43;76.30;;;20.70;99.90;;;;;;4931469;29;20154;-77
2021/07/14 01:02:19;;;;;;;90.30;73.55;;;20.90;99.90;;;;;;4931360;29;20130;-78
2021/07/14 01:04:54;;;;;;;89.05;73.90;;;20.80;99.90;;;;;;4931322;29;20055;-77
2021/07/14 01:07:29;;;;;;;85.10;71.13;;;20.80;99.90;;;;;;4930828;29;20412;-77
2021/07/14 01:10:02;;;;;;;91.13;74.05;;;20.70;99.90;;;;;;4947479;29;20081;-77
2021/07/14 01:12:44;;;;;;;91.93;73.22;;;20.70;99.90;;;;;;4929869;29;20517;-77
2021/07/14 01:15:15;;;;;;;96.82;74.38;;;20.70;99.90;;;;;;4947669;28;20142;-77
2021/07/14 01:17:59;;;;;;;97.78;73.93;;;20.70;99.90;;;;;;4961800;28;20067;-77
2021/07/14 01:20:29;;;;;;;98.22;78.00;;;20.60;99.90;;;;;;4947852;28;20051;-77
2021/07/14 01:23:11;;;;;;;90.75;73.80;;;20.60;99.90;;;;;;4967948;28;20046;-77
2021/07/14 01:26:15;;;;;;;100.65;75.88;;;20.60;99.90;;;;;;4943509;28;20229;-76
2021/07/14 01:28:45;;;;;;;102.40;79.03;;;20.60;99.90;;;;;;4934658;28;20048;-76
2021/07/14 01:31:17;;;;;;;102.45;78.63;;;20.60;99.90;;;;;;4915255;29;20135;-77
2021/07/14 01:33:46;;;;;;;99.22;74.35;;;20.50;99.90;;;;;;4947263;28;20101;-77
2021/07/14 01:36:18;;;;;;;95.47;72.90;;;20.50;99.90;;;;;;4956574;28;20069;-76
2021/07/14 01:38:46;;;;;;;56.97;48.65;;;20.50;99.90;;;;;;4965366;28;20066;-77
2021/07/14 01:41:15;;;;;;;56.20;45.30;;;20.40;99.90;;;;;;4949266;28;20527;-77
2021/07/14 01:43:51;;;;;;;52.22;44.20;;;20.30;99.90;;;;;;4946429;28;20142;-77
2021/07/14 01:46:20;;;;;;;53.15;43.80;;;20.20;99.90;;;;;;4926863;28;20132;-77
2021/07/14 01:48:49;;;;;;;54.92;44.45;;;20.30;99.90;;;;;;4956787;28;20054;-77
2021/07/14 01:51:17;;;;;;;53.72;43.05;;;20.30;99.90;;;;;;4938170;28;20134;-77
2021/07/14 01:53:45;;;;;;;57.63;45.53;;;20.20;99.90;;;;;;4949277;28;20078;-78
2021/07/14 01:56:13;;;;;;;55.55;44.25;;;20.20;99.90;;;;;;4942056;28;20690;-77
2021/07/14 01:58:42;;;;;;;52.28;42.63;;;20.20;99.90;;;;;;4938694;28;20496;-77
2021/07/14 02:01:13;;;;;;;56.35;44.90;;;20.20;99.90;;;;;;4947585;28;20047;-77
2021/07/14 02:03:54;;;;;;;60.35;46.97;;;20.30;99.90;;;;;;4967429;28;20347;-76
2021/07/14 02:06:21;;;;;;;61.45;46.85;;;20.20;99.90;;;;;;4966647;28;20047;-77
2021/07/14 02:08:49;;;;;;;59.35;47.70;;;20.30;99.90;;;;;;4959728;28;20067;-77
2021/07/14 02:11:22;;;;;;;60.35;48.55;;;20.20;99.90;;;;;;4946729;28;20031;-77
2021/07/14 02:13:52;;;;;;;64.85;49.53;;;20.30;99.90;;;;;;4929708;28;20141;-76
2021/07/14 02:16:23;;;;;;;52.50;45.13;;;20.40;99.90;;;;;;4944642;28;20130;-77
2021/07/14 02:18:56;;;;;;;62.88;47.70;;;20.40;99.90;;;;;;4930796;29;20182;-77
2021/07/14 02:21:24;;;;;;;64.63;50.63;;;20.30;99.90;;;;;;4930393;29;20047;-76
2021/07/14 02:23:51;;;;;;;59.80;47.42;;;20.30;99.90;;;;;;4946413;28;20067;-77
2021/07/14 02:26:18;;;;;;;55.30;45.35;;;20.30;99.90;;;;;;4960576;28;20066;-77
2021/07/14 02:28:46;;;;;;;54.40;45.30;;;20.20;99.90;;;;;;4947581;28;20043;-77
2021/07/14 02:31:13;;;;;;;59.65;45.80;;;20.20;99.90;;;;;;4964029;28;20223;-77
2021/07/14 02:33:40;;;;;;;58.38;45.67;;;20.10;99.90;;;;;;4940251;28;20143;-77
2021/07/14 02:36:11;;;;;;;61.58;48.03;;;20.00;99.90;;;;;;4929235;29;20059;-77
2021/07/14 02:38:44;;;;;;;50.63;41.35;;;20.00;99.90;;;;;;4945404;28;20062;-77
2021/07/14 02:41:17;;;;;;;59.00;44.88;;;19.80;99.90;;;;;;4909222;29;20726;-77
2021/07/14 02:43:48;;;;;;;55.97;43.70;;;19.70;99.90;;;;;;4927757;28;20063;-76
2021/07/14 02:46:23;;;;;;;52.00;40.10;;;19.80;99.90;;;;;;4944458;28;20142;-77
2021/07/14 02:48:57;;;;;;;51.35;40.28;;;19.80;99.90;;;;;;4943462;28;20070;-76
2021/07/14 02:51:28;;;;;;;52.00;37.53;;;19.70;99.90;;;;;;4962337;28;20129;-76
2021/07/14 02:53:59;;;;;;;44.45;37.40;;;19.70;99.90;;;;;;4945747;28;20585;-77
2021/07/14 02:56:29;;;;;;;48.90;38.13;;;19.60;99.90;;;;;;4961870;28;20121;-77
2021/07/14 02:59:02;;;;;;;57.75;42.08;;;19.60;99.90;;;;;;4964073;28;20065;-77
2021/07/14 03:01:31;;;;;;;70.88;50.03;;;19.60;99.90;;;;;;4962801;28;20194;-76
2021/07/14 03:03:59;;;;;;;71.88;49.13;;;19.50;99.90;;;;;;4964689;28;20542;-77
2021/07/14 03:06:31;;;;;;;78.13;51.67;;;19.60;99.90;;;;;;4965077;28;20042;-77
2021/07/14 03:09:03;;;;;;;90.32;54.38;;;19.60;99.90;;;;;;4947198;28;20087;-76
2021/07/14 03:11:37;;;;;;;84.80;55.55;;;19.50;99.90;;;;;;4950265;28;20062;-76
2021/07/14 03:14:06;;;;;;;75.23;49.60;;;19.50;99.90;;;;;;4929078;29;20542;-76
2021/07/14 03:16:34;;;;;;;74.00;45.22;;;19.40;99.90;;;;;;4942632;28;20755;-76
2021/07/14 03:19:03;;;;;;;69.57;45.33;;;19.40;99.90;;;;;;4928157;29;20440;-77
2021/07/14 03:21:32;;;;;;;66.30;45.33;;;19.50;99.90;;;;;;4953817;28;20291;-77
2021/07/14 03:24:02;;;;;;;49.63;34.70;;;19.50;99.90;;;;;;4944558;28;20090;-76
2021/07/14 03:26:29;;;;;;;32.22;25.08;;;19.50;99.90;;;;;;4943439;28;20058;-77
2021/07/14 03:28:56;;;;;;;33.35;22.23;;;19.30;99.90;;;;;;4944938;28;20066;-77
2021/07/14 03:31:24;;;;;;;33.25;22.30;;;19.30;99.90;;;;;;4964576;28;20047;-77
2021/07/14 03:33:51;;;;;;;27.80;20.58;;;19.30;99.90;;;;;;4941520;28;20063;-77
2021/07/14 03:36:20;;;;;;;27.27;18.92;;;19.30;99.90;;;;;;4931674;29;20059;-76
2021/07/14 03:38:47;;;;;;;24.00;16.20;;;19.30;99.90;;;;;;4956422;28;20054;-76
2021/07/14 03:41:15;;;;;;;21.17;15.98;;;19.20;99.90;;;;;;4948983;28;20061;-76
2021/07/14 03:43:43;;;;;;;25.70;15.57;;;19.00;99.90;;;;;;4944963;28;20043;-76
2021/07/14 03:46:11;;;;;;;26.27;16.77;;;18.90;99.90;;;;;;4950311;28;20055;-77
2021/07/14 03:48:39;;;;;;;23.27;14.95;;;18.90;99.90;;;;;;4962671;28;20054;-77
2021/07/14 03:51:07;;;;;;;26.23;14.75;;;18.90;99.90;;;;;;4955490;28;20051;-77
2021/07/14 03:53:35;;;;;;;23.92;14.95;;;18.90;99.90;;;;;;4945693;28;20062;-77
2021/07/14 03:56:03;;;;;;;32.25;14.90;;;18.90;99.90;;;;;;4960251;28;20047;-77
2021/07/14 03:58:30;;;;;;;20.33;15.05;;;18.90;99.90;;;;;;4967393;28;20087;-76
2021/07/14 04:00:57;;;;;;;18.45;13.18;;;18.80;99.90;;;;;;4933728;28;20047;-77
2021/07/14 04:03:27;;;;;;;18.15;12.60;;;18.70;99.90;;;;;;4966737;28;20049;-77
2021/07/14 04:06:00;;;;;;;15.30;11.63;;;18.70;99.90;;;;;;4966498;28;20141;-77
2021/07/14 04:08:36;;;;;;;15.88;10.38;;;18.70;99.90;;;;;;4967940;28;20125;-77
2021/07/14 04:11:05;;;;;;;10.70;8.80;;;18.60;99.90;;;;;;4966885;28;20098;-77
2021/07/14 04:13:33;;;;;;;8.65;7.25;;;18.60;99.90;;;;;;4967473;28;20182;-77
2021/07/14 04:16:00;;;;;;;12.05;8.02;;;18.60;99.90;;;;;;4966091;28;20074;-77
2021/07/14 04:18:27;;;;;;;11.90;7.80;;;18.60;99.90;;;;;;4933874;28;20078;-77
2021/07/14 04:20:54;;;;;;;10.63;9.02;;;18.60;99.90;;;;;;4946415;28;20051;-77
2021/07/14 04:23:21;;;;;;;13.65;9.57;;;18.50;99.90;;;;;;4938972;28;20542;-77
2021/07/14 04:25:48;;;;;;;16.15;8.80;;;18.50;99.90;;;;;;4943684;28;20061;-77
2021/07/14 04:28:15;;;;;;;14.10;7.75;;;18.60;99.90;;;;;;4966451;28;20054;-76
2021/07/14 04:30:42;;;;;;;12.73;9.55;;;18.70;99.90;;;;;;4947886;28;20074;-76
2021/07/14 04:33:11;;;;;;;12.63;8.55;;;18.70;99.90;;;;;;4928083;29;20055;-76
2021/07/14 04:35:41;;;;;;;13.02;9.10;;;18.70;99.90;;;;;;4929529;29;20230;-76
2021/07/14 04:38:07;;;;;;;12.52;9.00;;;18.70;99.90;;;;;;4946109;29;20067;-78
2021/07/14 04:40:34;;;;;;;14.88;9.90;;;18.80;99.90;;;;;;4929129;28;20059;-77
2021/07/14 04:43:01;;;;;;;18.48;11.05;;;18.80;99.90;;;;;;4945489;28;20074;-77
2021/07/14 04:45:28;;;;;;;14.73;10.65;;;18.90;99.90;;;;;;4948700;28;20420;-77
2021/07/14 04:47:55;;;;;;;13.98;10.45;;;18.90;99.90;;;;;;4931707;29;20795;-77
2021/07/14 04:50:23;;;;;;;15.48;10.55;;;18.90;99.90;;;;;;4929573;28;20060;-78
2021/07/14 04:52:49;;;;;;;17.92;11.30;;;19.10;99.90;;;;;;4945918;28;20448;-77
2021/07/14 04:55:16;;;;;;;16.85;10.55;;;19.10;99.90;;;;;;4954832;28;20054;-78
2021/07/14 04:57:43;;;;;;;13.52;9.70;;;18.90;99.90;;;;;;4951106;28;20077;-77
2021/07/14 05:00:11;;;;;;;16.25;11.20;;;19.00;99.90;;;;;;4950294;28;20054;-78
2021/07/14 05:02:38;;;;;;;17.30;11.48;;;19.10;99.90;;;;;;4932422;28;20631;-78
2021/07/14 05:05:05;;;;;;;17.73;11.93;;;19.10;99.90;;;;;;4921328;28;20082;-77
2021/07/14 05:07:32;;;;;;;16.95;12.13;;;19.30;99.90;;;;;;4945176;28;20110;-78
2021/07/14 05:09:59;;;;;;;22.88;13.38;;;19.30;99.90;;;;;;4947750;28;20066;-77
2021/07/14 05:12:26;;;;;;;17.77;12.32;;;19.20;99.90;;;;;;4951192;28;20464;-77
2021/07/14 05:14:53;;;;;;;23.65;13.43;;;19.20;99.90;;;;;;4951822;28;20110;-77
2021/07/14 05:17:20;;;;;;;26.08;13.50;;;19.10;99.90;;;;;;4959494;28;20053;-78
2021/07/14 05:19:47;;;;;;;24.30;13.88;;;19.10;99.90;;;;;;4950512;28;20134;-77
2021/07/14 05:22:14;;;;;;;26.10;13.93;;;19.00;99.90;;;;;;4929533;29;20660;-77
2021/07/14 05:24:42;;;;;;;24.08;12.30;;;19.10;99.90;;;;;;4959688;28;20592;-77
2021/07/14 05:27:09;;;;;;;30.70;13.23;;;19.00;99.90;;;;;;4966124;28;20121;-77
2021/07/14 05:29:36;;;;;;;38.90;16.65;;;19.10;99.90;;;;;;4966452;28;20084;-77
2021/07/14 05:32:04;;;;;;;37.25;17.98;;;19.10;99.90;;;;;;4966287;28;20439;-77
2021/07/14 05:34:32;;;;;;;40.65;18.17;;;19.00;99.90;;;;;;4948712;28;20077;-77
2021/07/14 05:36:59;;;;;;;53.28;20.08;;;19.00;99.90;;;;;;4964924;28;20242;-76
2021/07/14 05:39:26;;;;;;;41.28;17.38;;;19.00;99.90;;;;;;4962573;28;20037;-77
2021/07/14 05:41:54;;;;;;;42.50;17.65;;;19.00;99.90;;;;;;4959719;28;20069;-77
2021/07/14 05:44:21;;;;;;;43.03;17.83;;;19.00;99.90;;;;;;4946434;28;20086;-77
2021/07/14 05:46:48;;;;;;;69.10;22.40;;;18.90;99.90;;;;;;4959307;28;20417;-76
2021/07/14 05:49:16;;;;;;;74.28;25.20;;;19.00;99.90;;;;;;4929991;29;20070;-78
2021/07/14 05:51:44;;;;;;;83.70;25.10;;;19.00;99.90;;;;;;4930363;29;20747;-77
2021/07/14 05:54:11;;;;;;;77.07;23.10;;;18.90;99.90;;;;;;4945269;28;20518;-77
2021/07/14 05:56:38;;;;;;;79.35;23.50;;;18.90;99.90;;;;;;4947846;28;20047;-76
2021/07/14 05:59:05;;;;;;;71.43;22.10;;;18.70;99.90;;;;;;4964776;28;20054;-76
2021/07/14 06:01:32;;;;;;;65.47;22.08;;;18.60;99.90;;;;;;4928711;28;20067;-75
2021/07/14 06:04:00;;;;;;;64.38;20.92;;;18.50;99.90;;;;;;4944894;28;20121;-76
2021/07/14 06:06:27;;;;;;;61.05;19.23;;;18.40;99.90;;;;;;4929063;28;20152;-77
2021/07/14 06:08:54;;;;;;;55.80;18.50;;;18.40;99.90;;;;;;4956706;28;20187;-77
2021/07/14 06:11:21;;;;;;;43.88;17.23;;;18.50;99.90;;;;;;4943747;28;20129;-77
2021/07/14 06:13:48;;;;;;;48.17;17.13;;;18.40;99.90;;;;;;4946943;28;20038;-77
2021/07/14 06:16:15;;;;;;;40.72;15.02;;;18.40;99.90;;;;;;4962019;28;20050;-77
2021/07/14 06:18:42;;;;;;;38.50;15.63;;;18.30;99.90;;;;;;4945396;29;20058;-76
2021/07/14 06:21:10;;;;;;;35.75;15.52;;;18.30;99.90;;;;;;4945555;28;20065;-77
2021/07/14 06:23:37;;;;;;;43.92;15.48;;;18.40;99.90;;;;;;4946654;28;20073;-77
2021/07/14 06:26:04;;;;;;;37.60;15.70;;;18.40;99.90;;;;;;4938997;28;20082;-77
2021/07/14 06:28:31;;;;;;;42.70;16.90;;;18.40;99.90;;;;;;4944624;28;20051;-77
2021/07/14 06:31:03;;;;;;;43.08;16.10;;;18.50;99.90;;;;;;4956474;28;20050;-77
2021/07/14 06:33:31;;;;;;;35.83;14.52;;;18.50;99.90;;;;;;4944964;29;20058;-76
2021/07/14 06:35:58;;;;;;;42.65;15.70;;;18.50;99.90;;;;;;4944767;28;20051;-77
2021/07/14 06:38:25;;;;;;;38.38;16.27;;;18.50;99.90;;;;;;4946847;28;21543;-76
2021/07/14 06:40:52;;;;;;;40.90;15.45;;;18.50;99.90;;;;;;4934183;29;20074;-76
2021/07/14 06:43:19;;;;;;;43.03;16.38;;;18.60;99.90;;;;;;4929311;29;20054;-77
2021/07/14 06:45:47;;;;;;;41.92;16.25;;;18.50;99.90;;;;;;4928587;29;20284;-76
2021/07/14 06:48:15;;;;;;;53.13;17.38;;;18.60;99.90;;;;;;4928868;29;20455;-76
2021/07/14 06:50:43;;;;;;;49.35;17.60;;;18.60;99.90;;;;;;4945121;28;20204;-76
2021/07/14 06:53:10;;;;;;;39.83;16.52;;;18.60;99.90;;;;;;4947749;28;20142;-78
2021/07/14 06:55:37;;;;;;;52.65;17.73;;;18.60;99.90;;;;;;4943283;28;20507;-76
2021/07/14 06:58:04;;;;;;;43.70;16.50;;;18.60;99.90;;;;;;4942737;28;20078;-76
2021/07/14 07:00:35;;;;;;;46.42;16.90;;;18.60;99.90;;;;;;4946532;28;20085;-76
2021/07/14 07:03:02;;;;;;;39.45;15.05;;;18.70;99.90;;;;;;4954904;28;20051;-76
2021/07/14 07:05:29;;;;;;;40.05;17.23;;;18.80;99.90;;;;;;4946995;28;20055;-76
2021/07/14 07:07:58;;;;;;;41.72;18.00;;;18.70;99.90;;;;;;4969647;28;20050;-77
2021/07/14 07:10:24;;;;;;;41.80;17.40;;;18.70;99.90;;;;;;4951546;28;20114;-76
2021/07/14 07:12:51;;;;;;;42.55;18.60;;;18.70;99.90;;;;;;4969477;28;20066;-77
2021/07/14 07:15:18;;;;;;;46.05;19.05;;;18.70;99.90;;;;;;4953251;28;20047;-76
2021/07/14 07:17:46;;;;;;;43.10;16.88;;;18.80;99.90;;;;;;4940492;28;20709;-76
2021/07/14 07:20:14;;;;;;;53.20;19.45;;;18.80;99.90;;;;;;4954258;28;20043;-77
2021/07/14 07:22:43;;;;;;;112.05;24.85;;;18.70;99.90;;;;;;4968339;28;20066;-77
2021/07/14 07:25:12;;;;;;;66.47;22.05;;;18.50;99.90;;;;;;4946053;28;20058;-77
2021/07/14 07:27:40;;;;;;;56.78;20.88;;;18.30;99.90;;;;;;4968096;28;20074;-76
2021/07/14 07:30:10;;;;;;;58.45;19.75;;;18.20;99.90;;;;;;4948938;28;20051;-75
2021/07/14 07:32:37;;;;;;;45.70;18.80;;;18.20;99.90;;;;;;4966303;28;20121;-75
2021/07/14 07:35:05;;;;;;;49.88;20.95;;;18.30;99.90;;;;;;4955073;28;20411;-77
2021/07/14 07:37:32;;;;;;;40.80;19.58;;;18.30;99.90;;;;;;4931218;29;20063;-76
2021/07/14 07:39:59;;;;;;;45.75;21.27;;;18.50;99.90;;;;;;4931956;29;20142;-76
2021/07/14 07:42:27;;;;;;;38.85;19.15;;;18.60;99.90;;;;;;4928698;28;20063;-78
2021/07/14 07:44:54;;;;;;;43.13;19.80;;;18.70;99.90;;;;;;4917025;29;20070;-77
2021/07/14 07:47:21;;;;;;;46.75;20.67;;;18.70;99.90;;;;;;4944162;28;20039;-77
2021/07/14 07:49:48;;;;;;;38.97;20.33;;;18.70;99.90;;;;;;4940918;29;20114;-77
2021/07/14 07:52:26;;;;;;;40.75;19.83;;;18.70;99.90;;;;;;4941774;28;20075;-77
2021/07/14 07:54:55;;;;;;;30.23;18.25;;;18.70;99.90;;;;;;4958050;28;20051;-76
2021/07/14 07:57:23;;;;;;;34.55;20.63;;;18.80;99.90;;;;;;4966632;28;20055;-77
2021/07/14 07:59:52;;;;;;;39.33;20.60;;;18.90;99.90;;;;;;4951400;28;20102;-77
2021/07/14 08:02:19;;;;;;;33.95;19.58;;;19.10;99.90;;;;;;4951619;28;20079;-77
2021/07/14 08:04:46;;;;;;;40.03;20.67;;;18.90;99.90;;;;;;4963691;28;20059;-76
2021/07/14 08:07:12;;;;;;;37.47;21.35;;;18.90;99.90;;;;;;4946502;28;20247;-76
2021/07/14 08:09:39;;;;;;;35.70;21.70;;;18.90;99.90;;;;;;4929722;28;20142;-77
2021/07/14 08:12:07;;;;;;;43.03;22.58;;;19.10;99.90;;;;;;4952685;28;20070;-77
2021/07/14 08:14:33;;;;;;;37.60;19.77;;;19.20;99.90;;;;;;4966548;28;20165;-77
2021/07/14 08:17:00;;;;;;;35.45;17.10;;;19.20;99.90;;;;;;4925280;28;20113;-77
2021/07/14 08:19:28;;;;;;;31.70;19.42;;;19.20;99.90;;;;;;4933119;29;20083;-77
2021/07/14 08:21:55;;;;;;;37.00;20.17;;;19.20;99.90;;;;;;4934831;28;20051;-77
2021/07/14 08:24:22;;;;;;;31.75;18.70;;;19.10;99.90;;;;;;4945831;28;20044;-77
2021/07/14 08:26:49;;;;;;;43.38;22.83;;;19.10;99.90;;;;;;4964999;28;20608;-77
2021/07/14 08:29:34;;;;;;;45.83;23.58;;;19.10;99.90;;;;;;4967881;28;20161;-77
2021/07/14 08:32:01;;;;;;;49.55;26.27;;;19.10;99.90;;;;;;4967460;28;20062;-77
2021/07/14 08:34:28;;;;;;;45.40;26.73;;;19.10;99.90;;;;;;4954070;28;20538;-77
2021/07/14 08:36:58;;;;;;;39.85;22.55;;;19.10;99.90;;;;;;4948497;28;20051;-77
2021/07/14 08:39:26;;;;;;;30.23;17.98;;;19.20;99.90;;;;;;4931566;28;20085;-76
2021/07/14 08:41:56;;;;;;;32.63;18.10;;;19.10;99.90;;;;;;4945814;28;20058;-77
2021/07/14 08:44:24;;;;;;;26.65;16.05;;;19.10;99.90;;;;;;4935457;29;20239;-76
2021/07/14 08:46:51;;;;;;;24.95;15.80;;;19.20;99.90;;;;;;4931883;28;20050;-77
2021/07/14 08:49:19;;;;;;;28.60;16.63;;;19.10;99.90;;;;;;4946542;28;20161;-77
2021/07/14 08:51:50;;;;;;;27.58;16.38;;;19.10;99.90;;;;;;4968164;28;20043;-76
2021/07/14 08:54:18;;;;;;;25.45;16.73;;;19.10;99.90;;;;;;4948733;28;20090;-78
2021/07/14 08:56:45;;;;;;;25.30;16.67;;;19.10;99.90;;;;;;4952328;28;20054;-76
2021/07/14 08:59:12;;;;;;;42.00;23.50;;;19.30;99.90;;;;;;4967274;28;20369;-76
2021/07/14 09:01:39;;;;;;;35.78;22.73;;;19.30;99.90;;;;;;4965884;28;20404;-77
2021/07/14 09:04:07;;;;;;;44.65;26.85;;;19.30;99.90;;;;;;4946117;28;20092;-77
2021/07/14 09:06:34;;;;;;;52.95;31.90;;;19.50;99.90;;;;;;4965708;28;20065;-76
2021/07/14 09:09:02;;;;;;;49.42;32.70;;;19.60;99.90;;;;;;4949488;28;20555;-77
2021/07/14 09:11:29;;;;;;;49.42;32.72;;;19.70;99.90;;;;;;4969653;28;20042;-76
2021/07/14 09:13:56;;;;;;;51.00;31.92;;;19.70;99.90;;;;;;4967360;28;20059;-76
2021/07/14 09:16:34;;;;;;;43.08;27.77;;;19.80;99.90;;;;;;4963720;28;20145;-75
2021/07/14 09:19:14;;;;;;;52.30;33.55;;;19.80;99.90;;;;;;4946002;29;20058;-75
2021/07/14 09:21:42;;;;;;;58.88;41.85;;;20.00;99.90;;;;;;4927240;29;20440;-76
2021/07/14 09:24:26;;;;;;;69.57;44.13;;;20.00;99.90;;;;;;4933827;28;20035;-76
2021/07/14 09:26:57;;;;;;;74.25;47.22;;;20.10;99.90;;;;;;4965052;28;20050;-76
2021/07/14 09:29:24;;;;;;;78.97;49.05;;;20.00;99.90;;;;;;4949286;28;20074;-75
2021/07/14 09:31:51;;;;;;;69.93;46.83;;;20.10;99.90;;;;;;4931253;29;20074;-76
2021/07/14 09:34:28;;;;;;;71.38;44.13;;;20.10;99.90;;;;;;4934702;28;20145;-76
2021/07/14 09:37:01;;;;;;;50.55;33.75;;;20.20;99.90;;;;;;4948267;28;20141;-76
2021/07/14 09:39:34;;;;;;;58.88;37.47;;;20.20;99.90;;;;;;4963881;28;20150;-76
2021/07/14 09:42:10;;;;;;;53.70;35.60;;;20.10;99.90;;;;;;4938201;28;20051;-76
2021/07/14 09:44:48;;;;;;;54.15;34.78;;;20.20;99.90;;;;;;4932969;28;20046;-76
2021/07/14 09:47:22;;;;;;;53.17;35.33;;;20.10;99.90;;;;;;4919805;28;20063;-76
2021/07/14 09:49:49;;;;;;;45.10;30.02;;;20.00;99.90;;;;;;4934931;29;20054;-76
2021/07/14 09:52:21;;;;;;;51.80;31.30;;;20.00;99.90;;;;;;4943421;28;20055;-76
2021/07/14 09:54:49;;;;;;;43.50;28.67;;;19.90;99.90;;;;;;4933693;28;20077;-75
2021/07/14 09:57:17;;;;;;;41.08;26.98;;;20.10;99.90;;;;;;4962476;28;20070;-76
2021/07/14 09:59:46;;;;;;;62.75;44.15;;;20.10;99.90;;;;;;4948862;28;20571;-76
2021/07/14 10:02:15;;;;;;;43.60;27.55;;;20.10;99.90;;;;;;4962922;28;20214;-76
2021/07/14 10:04:44;;;;;;;47.22;32.15;;;20.10;99.90;;;;;;4948119;28;20065;-76
2021/07/14 10:07:30;;;;;;;46.28;32.22;;;20.10;99.90;;;;;;4964535;28;20043;-75
2021/07/14 10:10:10;;;;;;;67.10;44.55;;;20.20;99.90;;;;;;4948472;28;20350;-76
2021/07/14 10:12:39;;;;;;;40.83;27.83;;;20.30;99.90;;;;;;4952292;28;20050;-75
2021/07/14 10:15:15;;;;;;;34.92;24.27;;;20.30;99.90;;;;;;4960152;28;20043;-76
2021/07/14 10:17:52;;;;;;;37.00;24.40;;;20.30;99.90;;;;;;4960745;28;20074;-76
2021/07/14 10:20:21;;;;;;;40.55;26.10;;;20.20;99.90;;;;;;4944966;28;20090;-76
2021/07/14 10:23:00;;;;;;;36.83;23.95;;;20.10;99.90;;;;;;4946433;28;20301;-77
2021/07/14 10:25:28;;;;;;;29.48;19.40;;;20.00;99.90;;;;;;4953662;28;20074;-76
2021/07/14 10:27:58;;;;;;;18.15;13.57;;;19.90;99.90;;;;;;4961759;28;20046;-76
2021/07/14 10:30:26;;;;;;;14.27;11.60;;;19.60;99.90;;;;;;4945423;28;20046;-77
2021/07/14 10:32:55;;;;;;;20.23;12.40;;;19.40;99.90;;;;;;4946437;28;20216;-77
2021/07/14 10:35:25;;;;;;;17.15;11.68;;;19.20;99.90;;;;;;4928851;28;20464;-78
2021/07/14 10:38:25;;;;;;;11.77;9.63;;;19.20;99.90;;;;;;4946947;28;20077;-75
2021/07/14 10:40:53;;;;;;;17.33;9.88;;;19.00;99.90;;;;;;4935981;29;20074;-76
2021/07/14 10:43:23;;;;;;;14.60;11.05;;;18.80;99.90;;;;;;4946461;28;20419;-77
2021/07/14 10:45:56;;;;;;;15.70;10.50;;;18.70;99.90;;;;;;4934864;28;20085;-77
2021/07/14 10:48:24;;;;;;;18.15;11.73;;;18.70;99.90;;;;;;4962205;28;20043;-77
2021/07/14 10:50:55;;;;;;;19.67;13.52;;;18.70;99.90;;;;;;4914292;29;20062;-79
2021/07/14 10:53:24;;;;;;;20.48;12.93;;;18.70;99.90;;;;;;4927998;29;20063;-76
2021/07/14 10:55:54;;;;;;;20.60;12.00;;;18.70;99.90;;;;;;4956928;28;20539;-76
2021/07/14 10:58:23;;;;;;;19.23;12.00;;;18.60;99.90;;;;;;4930476;28;20082;-76
2021/07/14 11:00:50;;;;;;;20.75;12.32;;;18.50;99.90;;;;;;4946391;28;20062;-76
2021/07/14 11:03:41;;;;;;;20.23;11.90;;;18.50;99.90;;;;;;4964407;28;20126;-76
2021/07/14 11:06:10;;;;;;;16.52;11.13;;;18.50;99.90;;;;;;4962316;28;20043;-77
2021/07/14 11:08:54;;;;;;;16.52;11.00;;;18.50;99.90;;;;;;4952541;28;20039;-77
2021/07/14 11:11:22;;;;;;;15.30;10.93;;;18.50;99.90;;;;;;4942914;28;20043;-77
2021/07/14 11:14:03;;;;;;;17.27;11.45;;;18.60;99.90;;;;;;4929768;28;20547;-77
2021/07/14 11:16:31;;;;;;;14.70;11.27;;;18.50;99.90;;;;;;4928378;29;20611;-77
2021/07/14 11:19:10;;;;;;;15.20;10.30;;;18.60;99.90;;;;;;4927063;29;20067;-77
2021/07/14 11:21:54;;;;;;;16.67;11.77;;;18.60;99.90;;;;;;4941246;28;20495;-77
2021/07/14 11:24:39;;;;;;;16.15;12.07;;;18.70;99.90;;;;;;4953631;28;20090;-77
2021/07/14 11:27:38;;;;;;;;;;;18.80;99.90;;;;;;4940482;28;20627;-77
2021/07/14 11:30:06;;;;;;;18.73;12.88;;;18.80;99.90;;;;;;4963646;28;19921;-77
2021/07/14 11:32:38;;;;;;;17.13;13.00;;;18.80;99.90;;;;;;4935876;28;20051;-76
2021/07/14 11:35:15;;;;;;;17.25;13.45;;;18.60;99.90;;;;;;4932326;28;20058;-75
2021/07/14 11:37:45;;;;;;;15.05;11.65;;;18.60;99.90;;;;;;4947670;28;20138;-76
2021/07/14 11:40:21;;;;;;;14.50;10.85;;;18.60;99.90;;;;;;4935494;28;20065;-77
2021/07/14 11:43:00;;;;;;;10.32;8.27;;;18.70;99.90;;;;;;4942813;28;20054;-77
2021/07/14 11:45:33;;;;;;;9.18;7.18;;;18.70;99.90;;;;;;4925282;28;20047;-75
2021/07/14 11:48:10;;;;;;;7.28;5.78;;;18.60;99.90;;;;;;4957888;28;20058;-75
2021/07/14 11:50:43;;;;;;;13.65;6.07;;;18.60;99.90;;;;;;4960077;28;20054;-76
2021/07/14 11:53:32;;;;;;;7.30;4.68;;;18.50;99.90;;;;;;4948405;28;20150;-74
2021/07/14 11:56:21;;;;;;;5.65;4.32;;;18.50;99.90;;;;;;4960567;28;20069;-76
2021/07/14 11:58:49;;;;;;;4.45;2.85;;;18.60;99.90;;;;;;4963878;28;20054;-76
2021/07/14 12:01:21;;;;;;;5.68;2.90;;;18.50;99.90;;;;;;4913064;29;20555;-74
2021/07/14 12:04:01;;;;;;;2.30;2.10;;;18.50;99.90;;;;;;4913929;29;20091;-76
2021/07/14 12:06:45;;;;;;;1.98;1.30;;;18.50;99.90;;;;;;4910643;29;20071;-75
2021/07/14 12:09:11;;;;;;;1.33;0.88;;;18.30;99.90;;;;;;4932599;28;20051;-76
2021/07/14 12:11:53;;;;;;;0.77;0.70;;;18.10;99.90;;;;;;4931777;29;20453;-75
2021/07/14 12:14:36;;;;;;;0.50;0.40;;;18.00;99.90;;;;;;4927128;29;20052;-76
2021/07/14 12:17:06;;;;;;;1.08;0.70;;;17.90;99.90;;;;;;4939638;28;20066;-75
2021/07/14 12:19:37;;;;;;;0.70;0.50;;;17.90;99.90;;;;;;4952604;28;20102;-75
2021/07/14 12:22:10;;;;;;;0.60;0.30;;;17.90;99.90;;;;;;4926389;29;20091;-75
2021/07/14 12:24:43;;;;;;;0.73;0.30;;;17.80;99.90;;;;;;4938250;28;20042;-75
2021/07/14 12:27:21;;;;;;;0.85;0.47;;;17.90;99.90;;;;;;4962526;28;20444;-76
2021/07/14 12:30:05;;;;;;;0.20;0.20;;;17.90;99.90;;;;;;4965150;28;20113;-76
2021/07/14 12:32:36;;;;;;;0.45;0.22;;;17.90;99.90;;;;;;4928334;28;20186;-76
2021/07/14 12:35:13;;;;;;;0.38;0.10;;;17.90;99.90;;;;;;4928139;28;20051;-76
2021/07/14 12:37:54;;;;;;;0.13;0.10;;;17.90;99.90;;;;;;4926821;29;20060;-76
2021/07/14 12:40:23;;;;;;;1.85;0.15;;;17.90;99.90;;;;;;4938215;28;20142;-75
2021/07/14 12:42:52;;;;;;;0.32;0.20;;;17.90;99.90;;;;;;4930011;29;20420;-75
2021/07/14 12:45:33;;;;;;;1.48;0.20;;;17.90;99.90;;;;;;4940247;28;20506;-76
2021/07/14 12:48:11;;;;;;;2.38;0.20;;;18.00;99.90;;;;;;4945509;28;20043;-75
2021/07/14 12:50:40;;;;;;;4.38;0.28;;;18.00;99.90;;;;;;4913556;28;20666;-75
2021/07/14 12:53:07;;;;;;;1.35;0.20;;;18.10;99.90;;;;;;4943267;28;20429;-76
2021/07/14 12:55:37;;;;;;;1.08;0.10;;;18.10;99.90;;;;;;4940479;28;20096;-76